sensor_id;sensor_type;location;lat;lon;timestamp;P1;durP1;ratioP1;P2;durP2;ratioP2
10059;SDS011;5069;49.306;8.636;2022-07-29T00:02:32;3.38;;;2.85;;
10059;SDS011;5069;49.306;8.636;2022-07-29T00:05:33;5.65;;;3.20;;
10059;SDS011;5069;49.306;8.636;2022-07-29T00:08:35;3.90;;;3.13;;
10059;SDS011;5069;49.306;8.636;2022-07-29T00:11:36;4.20;;;3.13;;
10059;SDS011;5069;49.306;8.636;2022-07-29T00:14:38;7.07;;;3.45;;
10059;SDS011;5069;49.306;8.636;2022-07-29T00:17:40;6.72;;;3.33;;
10059;SDS011;5069;49.306;8.636;2022-07-29T00:20:41;4.93;;;3.50;;
10059;SDS011;5069;49.306;8.636;2022-07-29T00:23:43;4.33;;;3.70;;
10059;SDS011;5069;49.306;8.636;2022-07-29T00:26:44;4.15;;;3.42;;
10059;SDS011;5069;49.306;8.636;2022-07-29T00:29:46;4.65;;;3.47;;
10059;SDS011;5069;49.306;8.636;2022-07-29T00:32:47;3.83;;;3.50;;
10059;SDS011;5069;49.306;8.636;2022-07-29T00:35:49;3.33;;;3.00;;
10059;SDS011;5069;49.306;8.636;2022-07-29T00:38:50;4.77;;;3.10;;
10059;SDS011;5069;49.306;8.636;2022-07-29T00:41:52;5.07;;;3.60;;
10059;SDS011;5069;49.306;8.636;2022-07-29T00:44:54;5.40;;;3.67;;
10059;SDS011;5069;49.306;8.636;2022-07-29T00:47:55;5.40;;;3.40;;
10059;SDS011;5069;49.306;8.636;2022-07-29T00:50:57;4.53;;;3.50;;
10059;SDS011;5069;49.306;8.636;2022-07-29T00:54:01;3.83;;;3.43;;
10059;SDS011;5069;49.306;8.636;2022-07-29T00:57:04;5.47;;;3.35;;
10059;SDS011;5069;49.306;8.636;2022-07-29T01:00:10;5.23;;;3.87;;
10059;SDS011;5069;49.306;8.636;2022-07-29T01:03:14;4.57;;;3.50;;
10059;SDS011;5069;49.306;8.636;2022-07-29T01:06:16;4.73;;;3.47;;
10059;SDS011;5069;49.306;8.636;2022-07-29T01:09:19;5.83;;;3.77;;
10059;SDS011;5069;49.306;8.636;2022-07-29T01:12:41;3.80;;;3.30;;
10059;SDS011;5069;49.306;8.636;2022-07-29T01:15:47;3.93;;;3.33;;
10059;SDS011;5069;49.306;8.636;2022-07-29T01:19:02;4.73;;;3.77;;
10059;SDS011;5069;49.306;8.636;2022-07-29T01:25:32;3.73;;;3.43;;
10059;SDS011;5069;49.306;8.636;2022-07-29T01:32:19;5.30;;;3.77;;
10059;SDS011;5069;49.306;8.636;2022-07-29T01:35:31;4.77;;;3.60;;
10059;SDS011;5069;49.306;8.636;2022-07-29T01:38:42;4.60;;;3.80;;
10059;SDS011;5069;49.306;8.636;2022-07-29T01:41:55;3.93;;;3.53;;
10059;SDS011;5069;49.306;8.636;2022-07-29T01:45:01;7.43;;;3.53;;
10059;SDS011;5069;49.306;8.636;2022-07-29T01:48:05;5.30;;;3.80;;
10059;SDS011;5069;49.306;8.636;2022-07-29T01:51:20;6.20;;;3.70;;
10059;SDS011;5069;49.306;8.636;2022-07-29T01:54:35;3.90;;;3.50;;
10059;SDS011;5069;49.306;8.636;2022-07-29T01:57:40;6.17;;;3.90;;
10059;SDS011;5069;49.306;8.636;2022-07-29T02:00:44;4.17;;;3.70;;
10059;SDS011;5069;49.306;8.636;2022-07-29T02:03:47;4.87;;;3.47;;
10059;SDS011;5069;49.306;8.636;2022-07-29T02:06:50;5.50;;;3.80;;
10059;SDS011;5069;49.306;8.636;2022-07-29T02:09:55;4.13;;;3.73;;
10059;SDS011;5069;49.306;8.636;2022-07-29T02:12:59;5.33;;;4.00;;
10059;SDS011;5069;49.306;8.636;2022-07-29T02:16:02;5.33;;;3.50;;
10059;SDS011;5069;49.306;8.636;2022-07-29T02:19:08;4.37;;;3.70;;
10059;SDS011;5069;49.306;8.636;2022-07-29T02:22:11;3.57;;;3.27;;
10059;SDS011;5069;49.306;8.636;2022-07-29T02:25:14;5.40;;;3.90;;
10059;SDS011;5069;49.306;8.636;2022-07-29T02:28:17;6.57;;;4.10;;
10059;SDS011;5069;49.306;8.636;2022-07-29T02:31:21;4.20;;;3.63;;
10059;SDS011;5069;49.306;8.636;2022-07-29T02:34:26;4.47;;;4.03;;
10059;SDS011;5069;49.306;8.636;2022-07-29T02:37:30;6.37;;;3.63;;
10059;SDS011;5069;49.306;8.636;2022-07-29T02:40:33;3.80;;;3.50;;
10059;SDS011;5069;49.306;8.636;2022-07-29T02:43:37;5.20;;;3.70;;
10059;SDS011;5069;49.306;8.636;2022-07-29T02:46:43;5.13;;;3.73;;
10059;SDS011;5069;49.306;8.636;2022-07-29T02:49:57;4.40;;;4.00;;
10059;SDS011;5069;49.306;8.636;2022-07-29T02:53:07;6.70;;;4.03;;
10059;SDS011;5069;49.306;8.636;2022-07-29T02:56:14;4.93;;;3.70;;
10059;SDS011;5069;49.306;8.636;2022-07-29T02:59:20;4.33;;;3.60;;
10059;SDS011;5069;49.306;8.636;2022-07-29T03:02:25;3.50;;;3.20;;
10059;SDS011;5069;49.306;8.636;2022-07-29T03:05:32;5.10;;;3.70;;
10059;SDS011;5069;49.306;8.636;2022-07-29T03:08:33;4.33;;;3.63;;
10059;SDS011;5069;49.306;8.636;2022-07-29T03:11:36;4.87;;;4.00;;
10059;SDS011;5069;49.306;8.636;2022-07-29T03:14:49;3.90;;;3.60;;
10059;SDS011;5069;49.306;8.636;2022-07-29T03:17:51;6.50;;;3.60;;
10059;SDS011;5069;49.306;8.636;2022-07-29T03:20:53;4.03;;;3.50;;
10059;SDS011;5069;49.306;8.636;2022-07-29T03:23:55;4.90;;;3.60;;
10059;SDS011;5069;49.306;8.636;2022-07-29T03:26:57;6.57;;;3.50;;
10059;SDS011;5069;49.306;8.636;2022-07-29T03:29:59;3.93;;;3.50;;
10059;SDS011;5069;49.306;8.636;2022-07-29T03:33:00;4.00;;;3.40;;
10059;SDS011;5069;49.306;8.636;2022-07-29T03:36:02;5.97;;;3.83;;
10059;SDS011;5069;49.306;8.636;2022-07-29T03:39:03;4.53;;;3.50;;
10059;SDS011;5069;49.306;8.636;2022-07-29T03:42:06;4.60;;;3.87;;
10059;SDS011;5069;49.306;8.636;2022-07-29T03:45:12;4.13;;;3.50;;
10059;SDS011;5069;49.306;8.636;2022-07-29T03:48:19;5.93;;;3.53;;
10059;SDS011;5069;49.306;8.636;2022-07-29T03:51:23;3.40;;;3.10;;
10059;SDS011;5069;49.306;8.636;2022-07-29T03:54:34;4.20;;;3.23;;
10059;SDS011;5069;49.306;8.636;2022-07-29T03:57:36;4.80;;;3.60;;
10059;SDS011;5069;49.306;8.636;2022-07-29T04:00:38;3.83;;;3.43;;
10059;SDS011;5069;49.306;8.636;2022-07-29T04:03:41;5.07;;;3.63;;
10059;SDS011;5069;49.306;8.636;2022-07-29T04:06:44;4.27;;;3.50;;
10059;SDS011;5069;49.306;8.636;2022-07-29T04:09:48;4.10;;;3.70;;
10059;SDS011;5069;49.306;8.636;2022-07-29T04:12:50;6.37;;;3.57;;
10059;SDS011;5069;49.306;8.636;2022-07-29T04:15:51;4.90;;;3.30;;
10059;SDS011;5069;49.306;8.636;2022-07-29T04:18:53;7.13;;;3.30;;
10059;SDS011;5069;49.306;8.636;2022-07-29T04:21:54;8.83;;;3.73;;
10059;SDS011;5069;49.306;8.636;2022-07-29T04:24:56;3.47;;;3.17;;
10059;SDS011;5069;49.306;8.636;2022-07-29T04:28:04;4.77;;;3.40;;
10059;SDS011;5069;49.306;8.636;2022-07-29T04:31:06;4.47;;;3.40;;
10059;SDS011;5069;49.306;8.636;2022-07-29T04:34:08;5.33;;;3.30;;
10059;SDS011;5069;49.306;8.636;2022-07-29T04:37:10;4.23;;;3.30;;
10059;SDS011;5069;49.306;8.636;2022-07-29T04:40:11;4.73;;;3.67;;
10059;SDS011;5069;49.306;8.636;2022-07-29T04:43:14;4.47;;;3.40;;
10059;SDS011;5069;49.306;8.636;2022-07-29T04:46:16;5.20;;;3.40;;
10059;SDS011;5069;49.306;8.636;2022-07-29T04:49:17;3.83;;;3.30;;
10059;SDS011;5069;49.306;8.636;2022-07-29T04:52:19;5.03;;;3.40;;
10059;SDS011;5069;49.306;8.636;2022-07-29T04:55:20;5.03;;;3.43;;
10059;SDS011;5069;49.306;8.636;2022-07-29T04:58:22;4.93;;;3.63;;
10059;SDS011;5069;49.306;8.636;2022-07-29T05:01:24;3.77;;;3.43;;
10059;SDS011;5069;49.306;8.636;2022-07-29T05:04:26;4.57;;;3.40;;
10059;SDS011;5069;49.306;8.636;2022-07-29T05:07:27;5.50;;;3.20;;
10059;SDS011;5069;49.306;8.636;2022-07-29T05:10:29;3.30;;;3.00;;
10059;SDS011;5069;49.306;8.636;2022-07-29T05:13:30;6.63;;;3.60;;
10059;SDS011;5069;49.306;8.636;2022-07-29T05:16:47;7.20;;;3.50;;
10059;SDS011;5069;49.306;8.636;2022-07-29T05:19:49;5.47;;;3.20;;
10059;SDS011;5069;49.306;8.636;2022-07-29T05:22:52;5.30;;;3.30;;
10059;SDS011;5069;49.306;8.636;2022-07-29T05:25:53;3.50;;;3.17;;
10059;SDS011;5069;49.306;8.636;2022-07-29T05:28:55;5.60;;;3.20;;
10059;SDS011;5069;49.306;8.636;2022-07-29T05:31:57;6.37;;;3.40;;
10059;SDS011;5069;49.306;8.636;2022-07-29T05:34:58;5.77;;;3.13;;
10059;SDS011;5069;49.306;8.636;2022-07-29T05:38:00;5.30;;;3.20;;
10059;SDS011;5069;49.306;8.636;2022-07-29T05:41:02;4.20;;;3.33;;
10059;SDS011;5069;49.306;8.636;2022-07-29T05:44:04;5.70;;;3.53;;
10059;SDS011;5069;49.306;8.636;2022-07-29T05:47:05;4.10;;;3.43;;
10059;SDS011;5069;49.306;8.636;2022-07-29T05:50:07;5.70;;;3.40;;
10059;SDS011;5069;49.306;8.636;2022-07-29T05:53:09;3.47;;;3.10;;
10059;SDS011;5069;49.306;8.636;2022-07-29T05:56:20;5.00;;;3.30;;
10059;SDS011;5069;49.306;8.636;2022-07-29T05:59:21;3.73;;;3.03;;
10059;SDS011;5069;49.306;8.636;2022-07-29T06:02:31;7.00;;;3.23;;
10059;SDS011;5069;49.306;8.636;2022-07-29T06:05:32;5.40;;;3.13;;
10059;SDS011;5069;49.306;8.636;2022-07-29T06:08:34;5.47;;;3.13;;
10059;SDS011;5069;49.306;8.636;2022-07-29T06:11:37;4.60;;;3.30;;
10059;SDS011;5069;49.306;8.636;2022-07-29T06:14:38;5.30;;;3.37;;
10059;SDS011;5069;49.306;8.636;2022-07-29T06:17:40;4.17;;;3.50;;
10059;SDS011;5069;49.306;8.636;2022-07-29T06:21:01;5.47;;;3.30;;
10059;SDS011;5069;49.306;8.636;2022-07-29T06:24:13;5.63;;;3.37;;
10059;SDS011;5069;49.306;8.636;2022-07-29T06:27:16;7.60;;;3.33;;
10059;SDS011;5069;49.306;8.636;2022-07-29T06:30:17;5.23;;;3.53;;
10059;SDS011;5069;49.306;8.636;2022-07-29T06:33:19;5.07;;;2.97;;
10059;SDS011;5069;49.306;8.636;2022-07-29T06:36:20;4.30;;;3.20;;
10059;SDS011;5069;49.306;8.636;2022-07-29T06:39:25;3.97;;;3.40;;
10059;SDS011;5069;49.306;8.636;2022-07-29T06:42:26;6.70;;;3.47;;
10059;SDS011;5069;49.306;8.636;2022-07-29T06:45:28;4.67;;;3.40;;
10059;SDS011;5069;49.306;8.636;2022-07-29T06:48:29;6.03;;;3.33;;
10059;SDS011;5069;49.306;8.636;2022-07-29T06:51:31;4.50;;;3.33;;
10059;SDS011;5069;49.306;8.636;2022-07-29T06:54:32;8.63;;;3.60;;
10059;SDS011;5069;49.306;8.636;2022-07-29T06:57:34;3.57;;;3.17;;
10059;SDS011;5069;49.306;8.636;2022-07-29T07:00:36;6.60;;;3.37;;
10059;SDS011;5069;49.306;8.636;2022-07-29T07:03:37;5.40;;;3.33;;
10059;SDS011;5069;49.306;8.636;2022-07-29T07:06:39;7.07;;;3.60;;
10059;SDS011;5069;49.306;8.636;2022-07-29T07:09:40;7.87;;;3.83;;
10059;SDS011;5069;49.306;8.636;2022-07-29T07:12:42;4.93;;;3.40;;
10059;SDS011;5069;49.306;8.636;2022-07-29T07:15:44;5.47;;;3.27;;
10059;SDS011;5069;49.306;8.636;2022-07-29T07:18:46;7.97;;;3.40;;
10059;SDS011;5069;49.306;8.636;2022-07-29T07:21:48;7.33;;;3.63;;
10059;SDS011;5069;49.306;8.636;2022-07-29T07:24:49;4.57;;;3.50;;
10059;SDS011;5069;49.306;8.636;2022-07-29T07:27:51;5.73;;;3.53;;
10059;SDS011;5069;49.306;8.636;2022-07-29T07:30:52;10.27;;;4.40;;
10059;SDS011;5069;49.306;8.636;2022-07-29T07:33:54;5.00;;;4.50;;
10059;SDS011;5069;49.306;8.636;2022-07-29T07:36:56;6.53;;;4.43;;
10059;SDS011;5069;49.306;8.636;2022-07-29T07:39:57;7.28;;;4.53;;
10059;SDS011;5069;49.306;8.636;2022-07-29T07:42:59;8.63;;;4.60;;
10059;SDS011;5069;49.306;8.636;2022-07-29T07:46:00;6.50;;;5.07;;
10059;SDS011;5069;49.306;8.636;2022-07-29T07:49:02;7.57;;;5.00;;
10059;SDS011;5069;49.306;8.636;2022-07-29T07:52:03;6.50;;;4.87;;
10059;SDS011;5069;49.306;8.636;2022-07-29T07:55:06;6.00;;;4.93;;
10059;SDS011;5069;49.306;8.636;2022-07-29T07:58:09;5.10;;;4.60;;
10059;SDS011;5069;49.306;8.636;2022-07-29T08:01:10;5.97;;;5.00;;
10059;SDS011;5069;49.306;8.636;2022-07-29T08:04:12;5.72;;;4.55;;
10059;SDS011;5069;49.306;8.636;2022-07-29T08:07:14;7.23;;;5.03;;
10059;SDS011;5069;49.306;8.636;2022-07-29T08:10:16;7.90;;;5.00;;
10059;SDS011;5069;49.306;8.636;2022-07-29T08:13:38;6.88;;;4.80;;
10059;SDS011;5069;49.306;8.636;2022-07-29T08:16:40;5.63;;;4.75;;
10059;SDS011;5069;49.306;8.636;2022-07-29T08:19:43;10.53;;;5.07;;
10059;SDS011;5069;49.306;8.636;2022-07-29T08:22:45;6.47;;;4.80;;
10059;SDS011;5069;49.306;8.636;2022-07-29T08:25:47;6.82;;;5.28;;
10059;SDS011;5069;49.306;8.636;2022-07-29T08:28:50;6.57;;;4.60;;
10059;SDS011;5069;49.306;8.636;2022-07-29T08:31:52;7.18;;;4.97;;
10059;SDS011;5069;49.306;8.636;2022-07-29T08:34:54;6.72;;;4.38;;
10059;SDS011;5069;49.306;8.636;2022-07-29T08:37:55;6.80;;;4.93;;
10059;SDS011;5069;49.306;8.636;2022-07-29T08:40:58;5.47;;;4.70;;
10059;SDS011;5069;49.306;8.636;2022-07-29T08:44:01;8.98;;;4.82;;
10059;SDS011;5069;49.306;8.636;2022-07-29T08:47:03;6.70;;;4.63;;
10059;SDS011;5069;49.306;8.636;2022-07-29T08:50:04;6.57;;;5.03;;
10059;SDS011;5069;49.306;8.636;2022-07-29T08:53:09;6.50;;;4.85;;
10059;SDS011;5069;49.306;8.636;2022-07-29T08:56:13;8.05;;;4.75;;
10059;SDS011;5069;49.306;8.636;2022-07-29T08:59:15;8.50;;;4.53;;
10059;SDS011;5069;49.306;8.636;2022-07-29T09:02:22;7.60;;;4.70;;
10059;SDS011;5069;49.306;8.636;2022-07-29T09:05:24;6.32;;;3.90;;
10059;SDS011;5069;49.306;8.636;2022-07-29T09:08:27;5.65;;;4.28;;
10059;SDS011;5069;49.306;8.636;2022-07-29T09:11:29;5.93;;;4.03;;
10059;SDS011;5069;49.306;8.636;2022-07-29T09:14:33;6.20;;;4.05;;
10059;SDS011;5069;49.306;8.636;2022-07-29T09:17:42;6.47;;;4.35;;
10059;SDS011;5069;49.306;8.636;2022-07-29T09:20:51;4.75;;;4.25;;
10059;SDS011;5069;49.306;8.636;2022-07-29T09:24:13;4.57;;;4.18;;
10059;SDS011;5069;49.306;8.636;2022-07-29T09:27:21;4.72;;;4.22;;
10059;SDS011;5069;49.306;8.636;2022-07-29T09:30:27;6.05;;;4.07;;
10059;SDS011;5069;49.306;8.636;2022-07-29T09:33:33;7.00;;;4.32;;
10059;SDS011;5069;49.306;8.636;2022-07-29T09:36:41;4.40;;;4.00;;
10059;SDS011;5069;49.306;8.636;2022-07-29T09:39:47;9.23;;;4.20;;
10059;SDS011;5069;49.306;8.636;2022-07-29T09:42:48;4.97;;;4.18;;
10059;SDS011;5069;49.306;8.636;2022-07-29T09:45:51;5.68;;;4.40;;
10059;SDS011;5069;49.306;8.636;2022-07-29T09:49:12;8.27;;;4.18;;
10059;SDS011;5069;49.306;8.636;2022-07-29T09:52:14;8.32;;;4.38;;
10059;SDS011;5069;49.306;8.636;2022-07-29T09:55:16;4.25;;;3.95;;
10059;SDS011;5069;49.306;8.636;2022-07-29T09:58:20;5.78;;;4.53;;
10059;SDS011;5069;49.306;8.636;2022-07-29T10:01:29;5.32;;;3.88;;
10059;SDS011;5069;49.306;8.636;2022-07-29T10:04:49;6.03;;;4.28;;
10059;SDS011;5069;49.306;8.636;2022-07-29T10:11:08;5.53;;;4.00;;
10059;SDS011;5069;49.306;8.636;2022-07-29T10:14:17;5.63;;;4.07;;
10059;SDS011;5069;49.306;8.636;2022-07-29T10:17:19;7.80;;;4.03;;
10059;SDS011;5069;49.306;8.636;2022-07-29T10:20:22;8.02;;;4.47;;
10059;SDS011;5069;49.306;8.636;2022-07-29T10:23:24;4.57;;;4.10;;
10059;SDS011;5069;49.306;8.636;2022-07-29T10:26:27;5.65;;;4.30;;
10059;SDS011;5069;49.306;8.636;2022-07-29T10:29:31;6.40;;;4.43;;
10059;SDS011;5069;49.306;8.636;2022-07-29T10:36:01;5.50;;;4.10;;
10059;SDS011;5069;49.306;8.636;2022-07-29T10:39:16;8.35;;;4.47;;
10059;SDS011;5069;49.306;8.636;2022-07-29T10:42:45;4.95;;;4.45;;
10059;SDS011;5069;49.306;8.636;2022-07-29T10:45:48;6.80;;;4.10;;
10059;SDS011;5069;49.306;8.636;2022-07-29T10:49:04;5.10;;;4.10;;
10059;SDS011;5069;49.306;8.636;2022-07-29T10:52:15;7.00;;;4.22;;
10059;SDS011;5069;49.306;8.636;2022-07-29T10:55:31;5.32;;;4.30;;
10059;SDS011;5069;49.306;8.636;2022-07-29T10:58:39;5.05;;;4.15;;
10059;SDS011;5069;49.306;8.636;2022-07-29T11:01:41;5.65;;;4.30;;
10059;SDS011;5069;49.306;8.636;2022-07-29T11:11:30;8.75;;;4.22;;
10059;SDS011;5069;49.306;8.636;2022-07-29T11:14:54;5.38;;;3.80;;
10059;SDS011;5069;49.306;8.636;2022-07-29T11:21:02;6.22;;;4.03;;
10059;SDS011;5069;49.306;8.636;2022-07-29T11:24:17;9.13;;;4.40;;
10059;SDS011;5069;49.306;8.636;2022-07-29T11:27:30;6.68;;;4.10;;
10059;SDS011;5069;49.306;8.636;2022-07-29T11:30:50;4.95;;;4.00;;
10059;SDS011;5069;49.306;8.636;2022-07-29T11:33:53;3.90;;;3.40;;
10059;SDS011;5069;49.306;8.636;2022-07-29T11:37:16;3.83;;;3.50;;
10059;SDS011;5069;49.306;8.636;2022-07-29T11:40:20;4.88;;;4.22;;
10059;SDS011;5069;49.306;8.636;2022-07-29T11:46:52;6.63;;;3.88;;
10059;SDS011;5069;49.306;8.636;2022-07-29T11:49:55;5.22;;;3.92;;
10059;SDS011;5069;49.306;8.636;2022-07-29T11:53:00;4.60;;;4.00;;
10059;SDS011;5069;49.306;8.636;2022-07-29T11:56:09;4.93;;;4.20;;
10059;SDS011;5069;49.306;8.636;2022-07-29T11:59:17;6.18;;;4.28;;
10059;SDS011;5069;49.306;8.636;2022-07-29T12:02:20;7.63;;;4.40;;
10059;SDS011;5069;49.306;8.636;2022-07-29T12:05:42;6.63;;;4.10;;
10059;SDS011;5069;49.306;8.636;2022-07-29T12:08:48;4.65;;;4.15;;
10059;SDS011;5069;49.306;8.636;2022-07-29T12:11:56;4.68;;;4.20;;
10059;SDS011;5069;49.306;8.636;2022-07-29T12:15:12;4.13;;;3.72;;
10059;SDS011;5069;49.306;8.636;2022-07-29T12:18:20;5.32;;;4.20;;
10059;SDS011;5069;49.306;8.636;2022-07-29T12:21:24;7.72;;;3.83;;
10059;SDS011;5069;49.306;8.636;2022-07-29T12:24:42;8.25;;;4.20;;
10059;SDS011;5069;49.306;8.636;2022-07-29T12:27:45;7.38;;;4.03;;
10059;SDS011;5069;49.306;8.636;2022-07-29T12:30:50;10.05;;;4.10;;
10059;SDS011;5069;49.306;8.636;2022-07-29T12:33:52;8.48;;;4.10;;
10059;SDS011;5069;49.306;8.636;2022-07-29T12:36:54;7.60;;;4.00;;
10059;SDS011;5069;49.306;8.636;2022-07-29T12:39:56;8.15;;;4.35;;
10059;SDS011;5069;49.306;8.636;2022-07-29T12:46:19;5.55;;;3.90;;
10059;SDS011;5069;49.306;8.636;2022-07-29T12:49:21;7.38;;;4.40;;
10059;SDS011;5069;49.306;8.636;2022-07-29T12:52:33;9.75;;;4.70;;
10059;SDS011;5069;49.306;8.636;2022-07-29T12:55:42;4.97;;;4.15;;
10059;SDS011;5069;49.306;8.636;2022-07-29T12:58:46;5.05;;;3.90;;
10059;SDS011;5069;49.306;8.636;2022-07-29T13:01:51;4.43;;;3.95;;
10059;SDS011;5069;49.306;8.636;2022-07-29T13:04:57;8.95;;;3.92;;
10059;SDS011;5069;49.306;8.636;2022-07-29T13:08:09;8.07;;;3.90;;
10059;SDS011;5069;49.306;8.636;2022-07-29T13:11:29;8.52;;;3.83;;
10059;SDS011;5069;49.306;8.636;2022-07-29T13:17:40;8.65;;;3.80;;
10059;SDS011;5069;49.306;8.636;2022-07-29T13:20:48;5.60;;;4.03;;
10059;SDS011;5069;49.306;8.636;2022-07-29T13:23:50;5.88;;;3.63;;
10059;SDS011;5069;49.306;8.636;2022-07-29T13:26:51;5.35;;;3.80;;
10059;SDS011;5069;49.306;8.636;2022-07-29T13:29:53;8.15;;;4.13;;
10059;SDS011;5069;49.306;8.636;2022-07-29T13:32:57;5.30;;;3.80;;
10059;SDS011;5069;49.306;8.636;2022-07-29T13:35:58;5.30;;;4.38;;
10059;SDS011;5069;49.306;8.636;2022-07-29T13:39:00;6.03;;;3.78;;
10059;SDS011;5069;49.306;8.636;2022-07-29T13:42:04;7.97;;;4.90;;
10059;SDS011;5069;49.306;8.636;2022-07-29T13:45:11;6.35;;;4.40;;
10059;SDS011;5069;49.306;8.636;2022-07-29T13:48:12;5.88;;;4.07;;
10059;SDS011;5069;49.306;8.636;2022-07-29T13:51:14;5.90;;;4.15;;
10059;SDS011;5069;49.306;8.636;2022-07-29T13:54:15;8.77;;;4.28;;
10059;SDS011;5069;49.306;8.636;2022-07-29T13:57:17;6.72;;;4.10;;
10059;SDS011;5069;49.306;8.636;2022-07-29T14:00:18;4.40;;;3.97;;
10059;SDS011;5069;49.306;8.636;2022-07-29T14:03:20;4.63;;;4.03;;
10059;SDS011;5069;49.306;8.636;2022-07-29T14:06:21;6.35;;;4.00;;
10059;SDS011;5069;49.306;8.636;2022-07-29T14:09:23;4.80;;;4.10;;
10059;SDS011;5069;49.306;8.636;2022-07-29T14:12:24;4.60;;;3.65;;
10059;SDS011;5069;49.306;8.636;2022-07-29T14:15:26;8.98;;;3.30;;
10059;SDS011;5069;49.306;8.636;2022-07-29T14:18:27;5.55;;;3.17;;
10059;SDS011;5069;49.306;8.636;2022-07-29T14:21:29;6.03;;;3.28;;
10059;SDS011;5069;49.306;8.636;2022-07-29T14:24:32;6.15;;;3.63;;
10059;SDS011;5069;49.306;8.636;2022-07-29T14:27:37;6.18;;;3.33;;
10059;SDS011;5069;49.306;8.636;2022-07-29T14:30:38;6.72;;;3.40;;
10059;SDS011;5069;49.306;8.636;2022-07-29T14:33:41;7.45;;;3.25;;
10059;SDS011;5069;49.306;8.636;2022-07-29T14:36:46;4.35;;;3.00;;
10059;SDS011;5069;49.306;8.636;2022-07-29T14:39:47;9.38;;;3.50;;
10059;SDS011;5069;49.306;8.636;2022-07-29T14:42:49;5.03;;;3.00;;
10059;SDS011;5069;49.306;8.636;2022-07-29T14:45:50;10.15;;;2.58;;
10059;SDS011;5069;49.306;8.636;2022-07-29T14:48:52;4.70;;;2.83;;
10059;SDS011;5069;49.306;8.636;2022-07-29T14:51:53;3.38;;;3.00;;
10059;SDS011;5069;49.306;8.636;2022-07-29T14:54:55;4.18;;;2.67;;
10059;SDS011;5069;49.306;8.636;2022-07-29T14:57:57;4.68;;;2.95;;
10059;SDS011;5069;49.306;8.636;2022-07-29T15:01:11;4.80;;;2.75;;
10059;SDS011;5069;49.306;8.636;2022-07-29T15:04:12;2.83;;;2.40;;
10059;SDS011;5069;49.306;8.636;2022-07-29T15:07:14;4.15;;;2.45;;
10059;SDS011;5069;49.306;8.636;2022-07-29T15:10:16;5.25;;;2.47;;
10059;SDS011;5069;49.306;8.636;2022-07-29T15:13:19;7.18;;;3.17;;
10059;SDS011;5069;49.306;8.636;2022-07-29T15:16:20;5.05;;;2.80;;
10059;SDS011;5069;49.306;8.636;2022-07-29T15:19:21;5.00;;;2.60;;
10059;SDS011;5069;49.306;8.636;2022-07-29T15:22:23;5.38;;;2.28;;
10059;SDS011;5069;49.306;8.636;2022-07-29T15:25:25;3.15;;;2.60;;
10059;SDS011;5069;49.306;8.636;2022-07-29T15:28:28;3.67;;;2.15;;
10059;SDS011;5069;49.306;8.636;2022-07-29T15:31:30;3.78;;;2.10;;
10059;SDS011;5069;49.306;8.636;2022-07-29T15:34:31;2.90;;;1.90;;
10059;SDS011;5069;49.306;8.636;2022-07-29T15:37:33;3.45;;;2.28;;
10059;SDS011;5069;49.306;8.636;2022-07-29T15:40:49;8.05;;;2.00;;
10059;SDS011;5069;49.306;8.636;2022-07-29T15:43:51;9.52;;;2.15;;
10059;SDS011;5069;49.306;8.636;2022-07-29T15:46:52;4.85;;;1.90;;
10059;SDS011;5069;49.306;8.636;2022-07-29T15:50:09;3.80;;;1.98;;
10059;SDS011;5069;49.306;8.636;2022-07-29T15:53:15;4.45;;;2.70;;
10059;SDS011;5069;49.306;8.636;2022-07-29T15:56:17;5.55;;;2.10;;
10059;SDS011;5069;49.306;8.636;2022-07-29T15:59:19;4.03;;;2.00;;
10059;SDS011;5069;49.306;8.636;2022-07-29T16:02:22;3.55;;;1.83;;
10059;SDS011;5069;49.306;8.636;2022-07-29T16:05:24;8.93;;;2.58;;
10059;SDS011;5069;49.306;8.636;2022-07-29T16:08:25;4.43;;;2.20;;
10059;SDS011;5069;49.306;8.636;2022-07-29T16:11:27;3.88;;;1.75;;
10059;SDS011;5069;49.306;8.636;2022-07-29T16:14:28;6.95;;;2.45;;
10059;SDS011;5069;49.306;8.636;2022-07-29T16:17:30;3.13;;;1.90;;
10059;SDS011;5069;49.306;8.636;2022-07-29T16:20:31;2.90;;;1.95;;
10059;SDS011;5069;49.306;8.636;2022-07-29T16:23:33;6.28;;;1.90;;
10059;SDS011;5069;49.306;8.636;2022-07-29T16:26:34;5.07;;;1.88;;
10059;SDS011;5069;49.306;8.636;2022-07-29T16:29:36;1.95;;;1.75;;
10059;SDS011;5069;49.306;8.636;2022-07-29T16:32:37;3.17;;;2.20;;
10059;SDS011;5069;49.306;8.636;2022-07-29T16:35:39;5.40;;;1.83;;
10059;SDS011;5069;49.306;8.636;2022-07-29T16:38:41;5.07;;;1.83;;
10059;SDS011;5069;49.306;8.636;2022-07-29T16:41:47;2.70;;;1.98;;
10059;SDS011;5069;49.306;8.636;2022-07-29T16:44:49;3.20;;;1.73;;
10059;SDS011;5069;49.306;8.636;2022-07-29T16:47:52;3.25;;;1.70;;
10059;SDS011;5069;49.306;8.636;2022-07-29T16:51:01;5.43;;;1.90;;
10059;SDS011;5069;49.306;8.636;2022-07-29T16:54:02;4.55;;;1.70;;
10059;SDS011;5069;49.306;8.636;2022-07-29T16:57:05;3.97;;;1.83;;
10059;SDS011;5069;49.306;8.636;2022-07-29T17:00:07;3.42;;;1.65;;
10059;SDS011;5069;49.306;8.636;2022-07-29T17:03:09;5.47;;;1.98;;
10059;SDS011;5069;49.306;8.636;2022-07-29T17:06:12;3.38;;;1.70;;
10059;SDS011;5069;49.306;8.636;2022-07-29T17:09:14;4.32;;;1.80;;
10059;SDS011;5069;49.306;8.636;2022-07-29T17:12:16;2.72;;;2.10;;
10059;SDS011;5069;49.306;8.636;2022-07-29T17:15:17;3.10;;;1.92;;
10059;SDS011;5069;49.306;8.636;2022-07-29T17:18:19;2.95;;;2.00;;
10059;SDS011;5069;49.306;8.636;2022-07-29T17:21:21;5.45;;;1.75;;
10059;SDS011;5069;49.306;8.636;2022-07-29T17:24:23;2.20;;;1.50;;
10059;SDS011;5069;49.306;8.636;2022-07-29T17:27:25;4.57;;;1.90;;
10059;SDS011;5069;49.306;8.636;2022-07-29T17:30:26;4.18;;;1.70;;
10059;SDS011;5069;49.306;8.636;2022-07-29T17:33:28;4.07;;;1.77;;
10059;SDS011;5069;49.306;8.636;2022-07-29T17:36:30;6.35;;;1.90;;
10059;SDS011;5069;49.306;8.636;2022-07-29T17:39:32;3.88;;;1.70;;
10059;SDS011;5069;49.306;8.636;2022-07-29T17:42:35;4.82;;;1.90;;
10059;SDS011;5069;49.306;8.636;2022-07-29T17:45:36;4.35;;;1.65;;
10059;SDS011;5069;49.306;8.636;2022-07-29T17:48:50;4.65;;;1.65;;
10059;SDS011;5069;49.306;8.636;2022-07-29T17:51:53;2.05;;;1.85;;
10059;SDS011;5069;49.306;8.636;2022-07-29T17:55:00;5.15;;;2.10;;
10059;SDS011;5069;49.306;8.636;2022-07-29T17:58:02;4.43;;;1.60;;
10059;SDS011;5069;49.306;8.636;2022-07-29T18:01:04;2.28;;;1.65;;
10059;SDS011;5069;49.306;8.636;2022-07-29T18:04:06;4.72;;;1.77;;
10059;SDS011;5069;49.306;8.636;2022-07-29T18:07:09;3.50;;;1.90;;
10059;SDS011;5069;49.306;8.636;2022-07-29T18:10:11;2.75;;;1.52;;
10059;SDS011;5069;49.306;8.636;2022-07-29T18:13:13;4.07;;;1.75;;
10059;SDS011;5069;49.306;8.636;2022-07-29T18:16:14;3.90;;;1.40;;
10059;SDS011;5069;49.306;8.636;2022-07-29T18:19:16;3.55;;;1.70;;
10059;SDS011;5069;49.306;8.636;2022-07-29T18:22:17;6.40;;;1.80;;
10059;SDS011;5069;49.306;8.636;2022-07-29T18:25:19;3.17;;;1.80;;
10059;SDS011;5069;49.306;8.636;2022-07-29T18:28:21;3.28;;;1.70;;
10059;SDS011;5069;49.306;8.636;2022-07-29T18:31:23;4.13;;;1.52;;
10059;SDS011;5069;49.306;8.636;2022-07-29T18:34:25;3.38;;;1.50;;
10059;SDS011;5069;49.306;8.636;2022-07-29T18:37:27;5.40;;;2.25;;
10059;SDS011;5069;49.306;8.636;2022-07-29T18:40:48;4.40;;;2.80;;
10059;SDS011;5069;49.306;8.636;2022-07-29T18:43:50;3.53;;;2.63;;
10059;SDS011;5069;49.306;8.636;2022-07-29T18:46:51;4.13;;;3.00;;
10059;SDS011;5069;49.306;8.636;2022-07-29T18:49:54;3.28;;;2.97;;
10059;SDS011;5069;49.306;8.636;2022-07-29T18:52:56;3.05;;;2.85;;
10059;SDS011;5069;49.306;8.636;2022-07-29T18:55:59;6.75;;;3.20;;
10059;SDS011;5069;49.306;8.636;2022-07-29T18:59:02;2.97;;;2.70;;
10059;SDS011;5069;49.306;8.636;2022-07-29T19:02:03;4.07;;;2.97;;
10059;SDS011;5069;49.306;8.636;2022-07-29T19:05:06;3.45;;;3.15;;
10059;SDS011;5069;49.306;8.636;2022-07-29T19:08:08;3.25;;;2.95;;
10059;SDS011;5069;49.306;8.636;2022-07-29T19:11:10;3.97;;;3.25;;
10059;SDS011;5069;49.306;8.636;2022-07-29T19:14:13;3.78;;;2.95;;
10059;SDS011;5069;49.306;8.636;2022-07-29T19:17:14;3.70;;;2.97;;
10059;SDS011;5069;49.306;8.636;2022-07-29T19:20:15;4.20;;;3.05;;